createdAt,value
2023-05-09T00:02:41.011Z,11.10
2023-05-09T00:05:39.349Z,10.45
2023-05-09T00:08:38.580Z,10.05
2023-05-09T00:11:36.394Z,10.60
2023-05-09T00:14:34.284Z,11.25
2023-05-09T00:17:32.224Z,11.32
2023-05-09T00:20:30.081Z,10.75
2023-05-09T00:23:27.791Z,10.15
2023-05-09T00:26:25.618Z,11.27
2023-05-09T00:29:23.407Z,10.52
2023-05-09T00:32:21.404Z,10.05
2023-05-09T00:35:19.938Z,10.82
2023-05-09T00:38:17.744Z,11.30
2023-05-09T00:41:15.486Z,10.07
2023-05-09T00:44:13.303Z,10.50
2023-05-09T00:47:11.040Z,10.65
2023-05-09T00:50:10.316Z,11.18
2023-05-09T00:53:08.700Z,10.10
2023-05-09T00:56:07.190Z,11.00
2023-05-09T00:59:05.025Z,10.13
2023-05-09T01:02:02.824Z,10.65
2023-05-09T01:05:00.578Z,9.80
2023-05-09T01:08:11.243Z,11.10
2023-05-09T01:11:18.846Z,11.63
2023-05-09T01:14:36.570Z,10.27
2023-05-09T01:18:09.549Z,10.00
2023-05-09T01:21:14.809Z,11.02
2023-05-09T01:24:48.450Z,10.13
2023-05-09T01:27:53.204Z,10.55
2023-05-09T01:30:53.185Z,9.80
2023-05-09T01:33:54.253Z,10.32
2023-05-09T01:36:53.258Z,9.90
2023-05-09T01:39:54.318Z,9.93
2023-05-09T01:42:53.780Z,11.00
2023-05-09T01:45:52.877Z,10.38
2023-05-09T01:48:51.807Z,10.68
2023-05-09T01:51:51.123Z,9.65
2023-05-09T01:54:49.678Z,10.38
2023-05-09T01:57:48.160Z,11.15
2023-05-09T02:00:47.502Z,10.43
2023-05-09T02:03:46.754Z,10.20
2023-05-09T02:06:45.699Z,10.75
2023-05-09T02:09:43.749Z,10.30
2023-05-09T02:12:41.734Z,11.38
2023-05-09T02:15:40.387Z,11.98
2023-05-09T02:18:38.894Z,11.30
2023-05-09T02:21:37.269Z,12.27
2023-05-09T02:24:35.378Z,12.05
2023-05-09T02:27:34.969Z,13.57
2023-05-09T02:30:36.786Z,12.85
2023-05-09T02:33:35.993Z,13.20
2023-05-09T02:36:34.092Z,13.32
2023-05-09T02:39:32.498Z,12.13
2023-05-09T02:42:30.697Z,13.50
2023-05-09T02:45:28.801Z,12.10
2023-05-09T02:48:26.751Z,12.98
2023-05-09T02:51:24.765Z,13.77
2023-05-09T02:54:22.742Z,12.68
2023-05-09T02:57:20.925Z,12.77
2023-05-09T03:00:19.113Z,13.05
2023-05-09T03:03:18.661Z,13.63
2023-05-09T03:06:16.735Z,13.85
2023-05-09T03:09:14.828Z,13.82
2023-05-09T03:12:12.747Z,13.38
2023-05-09T03:15:22.997Z,14.18
2023-05-09T03:18:20.712Z,14.25
2023-05-09T03:21:18.552Z,13.73
2023-05-09T03:24:16.345Z,15.43
2023-05-09T03:27:14.158Z,15.63
2023-05-09T03:30:12.478Z,17.75
2023-05-09T03:33:10.361Z,17.55
2023-05-09T03:36:08.387Z,16.17
2023-05-09T03:39:06.302Z,15.05
2023-05-09T03:42:04.096Z,16.30
2023-05-09T03:45:02.080Z,16.13
2023-05-09T03:47:59.907Z,17.73
2023-05-09T03:50:57.820Z,17.60
2023-05-09T03:53:55.841Z,17.80
2023-05-09T03:56:53.771Z,17.52
2023-05-09T03:59:51.829Z,16.35
2023-05-09T04:02:50.688Z,17.10
2023-05-09T04:05:48.681Z,15.32
2023-05-09T04:08:46.602Z,16.48
2023-05-09T04:11:44.416Z,14.77
2023-05-09T04:14:42.288Z,16.25
2023-05-09T04:17:40.091Z,15.75
2023-05-09T04:20:37.923Z,15.52
2023-05-09T04:23:35.624Z,15.25
2023-05-09T04:26:33.657Z,16.02
2023-05-09T04:29:31.892Z,14.52
2023-05-09T04:32:29.769Z,14.57
2023-05-09T04:35:27.620Z,13.95
2023-05-09T04:38:25.457Z,15.13
2023-05-09T04:41:23.452Z,15.15
2023-05-09T04:44:22.293Z,15.00
2023-05-09T04:47:19.974Z,13.13
2023-05-09T04:50:18.109Z,12.63
2023-05-09T04:53:15.995Z,13.05
2023-05-09T04:56:13.785Z,12.35
2023-05-09T04:59:11.498Z,12.93
2023-05-09T05:02:09.332Z,12.68
2023-05-09T05:05:12.143Z,12.30
2023-05-09T05:08:15.932Z,10.77
2023-05-09T05:11:14.124Z,8.90
2023-05-09T05:14:11.908Z,13.95
2023-05-09T05:17:09.657Z,15.60
2023-05-09T05:20:08.925Z,15.40
2023-05-09T05:23:06.661Z,13.93
2023-05-09T05:26:04.497Z,14.48
2023-05-09T05:29:02.354Z,13.35
2023-05-09T05:32:00.446Z,13.23
2023-05-09T05:34:58.240Z,12.50
2023-05-09T05:37:56.172Z,14.13
2023-05-09T05:40:53.851Z,13.27
2023-05-09T05:43:54.098Z,13.27
2023-05-09T05:46:52.275Z,12.02
2023-05-09T05:49:50.048Z,12.55
2023-05-09T05:52:48.077Z,11.90
2023-05-09T05:55:46.696Z,11.70
2023-05-09T05:58:44.397Z,13.18
2023-05-09T06:01:42.262Z,11.18
2023-05-09T06:04:40.050Z,11.90
2023-05-09T06:07:38.240Z,13.18
2023-05-09T06:10:36.547Z,11.63
2023-05-09T06:13:34.321Z,10.55
2023-05-09T06:16:32.065Z,11.05
2023-05-09T06:19:30.034Z,10.32
2023-05-09T06:22:27.732Z,11.88
2023-05-09T06:25:25.516Z,11.43
2023-05-09T06:28:23.430Z,11.00
2023-05-09T06:31:21.936Z,11.15
2023-05-09T06:34:19.887Z,11.45
2023-05-09T06:37:17.700Z,13.10
2023-05-09T06:40:15.559Z,12.00
2023-05-09T06:43:13.390Z,13.52
2023-05-09T06:46:11.075Z,12.65
2023-05-09T06:49:08.968Z,11.73
2023-05-09T06:52:06.680Z,11.73
2023-05-09T06:55:05.003Z,12.60
2023-05-09T06:58:03.559Z,12.00
2023-05-09T07:01:01.363Z,12.40
2023-05-09T07:04:00.144Z,11.68
2023-05-09T07:06:57.995Z,12.18
2023-05-09T07:10:07.257Z,11.18
2023-05-09T07:13:08.853Z,11.05
2023-05-09T07:16:07.031Z,11.65
2023-05-09T07:19:04.853Z,10.80
2023-05-09T07:22:02.632Z,12.23
2023-05-09T07:25:00.539Z,11.30
2023-05-09T07:27:58.457Z,11.45
2023-05-09T07:30:57.389Z,11.55
2023-05-09T07:33:55.117Z,12.15
2023-05-09T07:36:52.987Z,10.82
2023-05-09T07:39:50.804Z,10.80
2023-05-09T07:42:50.400Z,11.40
2023-05-09T07:45:48.280Z,10.90
2023-05-09T07:48:46.184Z,10.93
2023-05-09T07:51:43.930Z,11.48
2023-05-09T07:54:41.804Z,10.75
2023-05-09T07:57:40.345Z,11.68
2023-05-09T08:00:38.176Z,10.73
2023-05-09T08:03:36.491Z,11.25
2023-05-09T08:06:34.389Z,10.95
2023-05-09T08:09:32.084Z,9.95
2023-05-09T08:12:29.968Z,10.13
2023-05-09T08:15:27.704Z,10.15
2023-05-09T08:18:25.569Z,10.60
2023-05-09T08:21:23.395Z,12.45
2023-05-09T08:24:21.519Z,9.93
2023-05-09T08:27:19.236Z,10.98
2023-05-09T08:30:17.144Z,11.32
2023-05-09T08:33:14.873Z,11.15
2023-05-09T08:36:12.789Z,10.88
2023-05-09T08:39:10.498Z,10.95
2023-05-09T08:42:10.291Z,10.82
2023-05-09T08:45:15.520Z,11.73
2023-05-09T08:48:16.410Z,11.00
2023-05-09T08:51:14.532Z,11.15
2023-05-09T08:54:12.611Z,10.68
2023-05-09T08:57:10.499Z,10.55
2023-05-09T09:00:11.853Z,11.15
2023-05-09T09:03:09.661Z,10.65
2023-05-09T09:06:10.038Z,11.48
2023-05-09T09:09:09.506Z,11.20
2023-05-09T09:12:10.398Z,11.77
2023-05-09T09:15:15.226Z,11.23
2023-05-09T09:18:17.509Z,12.25
2023-05-09T09:21:17.750Z,12.88
2023-05-09T09:24:20.798Z,12.07
2023-05-09T09:27:19.337Z,12.20
2023-05-09T09:30:18.039Z,11.43
2023-05-09T09:33:24.294Z,12.32
2023-05-09T09:36:37.694Z,11.25
2023-05-09T09:39:35.778Z,10.95
2023-05-09T09:42:43.561Z,11.82
2023-05-09T09:45:42.974Z,12.25
2023-05-09T09:48:41.070Z,12.00
2023-05-09T09:51:38.887Z,12.55
2023-05-09T09:54:36.955Z,11.70
2023-05-09T09:57:37.701Z,13.30
2023-05-09T10:00:35.589Z,13.70
2023-05-09T10:03:42.785Z,12.68
2023-05-09T10:06:52.235Z,11.48
2023-05-09T10:09:50.082Z,11.82
2023-05-09T10:12:49.200Z,11.70
2023-05-09T10:15:53.488Z,11.98
2023-05-09T10:18:51.894Z,12.57
2023-05-09T10:21:53.878Z,11.90
2023-05-09T10:25:02.987Z,11.30
2023-05-09T10:28:02.318Z,13.75
2023-05-09T10:31:14.387Z,11.15
2023-05-09T10:34:13.692Z,10.35
2023-05-09T10:37:13.222Z,11.23
2023-05-09T10:40:15.683Z,11.90
2023-05-09T10:43:14.150Z,11.38
2023-05-09T10:46:12.900Z,11.38
2023-05-09T10:49:11.098Z,13.88
2023-05-09T10:52:08.849Z,11.25
2023-05-09T10:55:07.364Z,13.45
2023-05-09T10:58:21.093Z,11.85
2023-05-09T11:01:35.692Z,11.23
2023-05-09T11:04:33.586Z,12.00
2023-05-09T11:07:31.384Z,12.50
2023-05-09T11:10:43.326Z,11.63
2023-05-09T11:13:47.122Z,12.82
2023-05-09T11:16:59.432Z,11.38
2023-05-09T11:23:06.683Z,12.48
2023-05-09T11:26:07.891Z,10.95
2023-05-09T11:29:07.579Z,12.02
2023-05-09T11:32:08.469Z,13.48
2023-05-09T11:35:08.248Z,16.90
2023-05-09T11:38:07.656Z,12.05
2023-05-09T11:41:06.400Z,12.20
2023-05-09T11:44:04.517Z,11.23
2023-05-09T11:47:02.678Z,12.05
2023-05-09T11:50:01.204Z,12.57
2023-05-09T11:52:59.211Z,12.35
2023-05-09T11:55:57.511Z,17.67
2023-05-09T11:58:55.477Z,11.00
2023-05-09T12:01:54.041Z,12.50
2023-05-09T12:04:52.115Z,11.93
2023-05-09T12:07:50.677Z,11.60
2023-05-09T12:10:48.675Z,12.07
2023-05-09T12:13:51.968Z,11.20
2023-05-09T12:16:49.931Z,11.18
2023-05-09T12:19:48.943Z,12.02
2023-05-09T12:22:55.090Z,11.13
2023-05-09T12:25:55.634Z,10.63
2023-05-09T12:28:53.690Z,18.98
2023-05-09T12:31:53.622Z,10.60
2023-05-09T12:34:52.625Z,10.40
2023-05-09T12:37:59.844Z,10.88
2023-05-09T12:41:10.714Z,13.23
2023-05-09T12:44:21.939Z,10.25
2023-05-09T12:47:19.950Z,11.05
2023-05-09T12:50:18.161Z,10.30
2023-05-09T12:53:25.476Z,10.80
2023-05-09T12:56:24.259Z,11.60
2023-05-09T12:59:27.419Z,11.90
2023-05-09T13:02:28.396Z,12.93
2023-05-09T13:05:26.437Z,12.07
2023-05-09T13:08:24.604Z,12.55
2023-05-09T13:11:22.973Z,12.52
2023-05-09T13:14:23.876Z,12.48
2023-05-09T13:17:21.819Z,12.00
2023-05-09T13:20:20.735Z,15.55
2023-05-09T13:23:19.185Z,14.32
2023-05-09T13:26:17.214Z,13.70
2023-05-09T13:29:15.171Z,12.32
2023-05-09T13:32:13.072Z,13.18
2023-05-09T13:35:11.042Z,14.52
2023-05-09T13:38:08.906Z,12.73
2023-05-09T13:41:07.453Z,14.75
2023-05-09T13:44:05.446Z,12.25
2023-05-09T13:47:03.341Z,12.75
2023-05-09T13:50:01.254Z,10.90
2023-05-09T13:52:59.239Z,11.10
2023-05-09T13:55:57.733Z,13.38
2023-05-09T13:58:55.535Z,12.52
2023-05-09T14:01:53.541Z,12.75
2023-05-09T14:04:51.374Z,12.32
2023-05-09T14:07:49.602Z,12.30
2023-05-09T14:10:48.569Z,11.90
2023-05-09T14:13:46.416Z,11.50
2023-05-09T14:16:44.252Z,11.70
2023-05-09T14:19:42.272Z,12.40
2023-05-09T14:22:40.043Z,15.00
2023-05-09T14:25:38.566Z,15.13
2023-05-09T14:28:37.866Z,15.40
2023-05-09T14:31:35.734Z,16.88
2023-05-09T14:34:33.777Z,16.20
2023-05-09T14:37:32.158Z,14.25
2023-05-09T14:40:33.200Z,13.32
2023-05-09T14:43:31.128Z,13.00
2023-05-09T14:46:29.227Z,12.98
2023-05-09T14:49:27.136Z,11.68
2023-05-09T14:52:24.921Z,12.40
2023-05-09T14:55:24.234Z,12.13
2023-05-09T14:58:23.294Z,11.82
2023-05-09T15:01:21.333Z,12.05
2023-05-09T15:04:19.223Z,10.85
2023-05-09T15:07:17.475Z,11.85
2023-05-09T15:10:15.764Z,11.50
2023-05-09T15:13:13.954Z,11.07
2023-05-09T15:16:12.116Z,11.57
2023-05-09T15:19:10.108Z,11.98
2023-05-09T15:22:09.425Z,11.00
2023-05-09T15:25:08.060Z,11.15
2023-05-09T15:28:05.942Z,11.40
2023-05-09T15:31:04.168Z,14.15
2023-05-09T15:34:02.200Z,11.77
2023-05-09T15:37:00.198Z,10.73
2023-05-09T15:39:57.968Z,12.05
2023-05-09T15:42:55.908Z,10.85
2023-05-09T15:45:53.734Z,9.95
2023-05-09T15:48:53.398Z,10.45
2023-05-09T15:51:52.513Z,10.48
2023-05-09T15:54:51.021Z,10.70
2023-05-09T15:57:48.946Z,10.25
2023-05-09T16:00:46.913Z,10.90
2023-05-09T16:03:45.466Z,11.48
2023-05-09T16:06:44.080Z,10.80
2023-05-09T16:09:42.705Z,11.23
2023-05-09T16:12:41.179Z,10.95
2023-05-09T16:15:39.043Z,10.10
2023-05-09T16:18:37.388Z,10.82
2023-05-09T16:21:35.272Z,10.63
2023-05-09T16:24:33.258Z,10.35
2023-05-09T16:27:31.171Z,10.57
2023-05-09T16:30:29.180Z,9.98
2023-05-09T16:33:27.848Z,10.23
2023-05-09T16:36:25.814Z,11.00
2023-05-09T16:39:24.356Z,10.95
2023-05-09T16:42:22.248Z,10.20
2023-05-09T16:45:20.236Z,10.60
2023-05-09T16:48:19.249Z,11.35
2023-05-09T16:51:17.033Z,10.63
2023-05-09T16:54:15.026Z,10.05
2023-05-09T16:57:13.468Z,11.70
2023-05-09T17:00:11.977Z,10.02
2023-05-09T17:03:09.895Z,10.48
2023-05-09T17:06:08.214Z,10.80
2023-05-09T17:09:06.156Z,10.50
2023-05-09T17:12:04.196Z,10.50
2023-05-09T17:15:01.982Z,9.77
2023-05-09T17:18:00.042Z,10.20
2023-05-09T17:20:57.864Z,10.50
2023-05-09T17:23:56.044Z,11.20
2023-05-09T17:26:53.847Z,11.02
2023-05-09T17:29:51.841Z,11.43
2023-05-09T17:32:49.785Z,10.43
2023-05-09T17:35:50.132Z,9.82
2023-05-09T17:38:47.960Z,9.77
2023-05-09T17:41:46.040Z,10.30
2023-05-09T17:44:44.369Z,10.20
2023-05-09T17:47:42.557Z,10.45
2023-05-09T17:50:40.391Z,9.05
2023-05-09T17:53:38.297Z,10.57
2023-05-09T17:56:36.105Z,9.60
2023-05-09T17:59:33.997Z,10.63
2023-05-09T18:02:31.799Z,9.88
2023-05-09T18:05:29.805Z,10.93
2023-05-09T18:08:27.761Z,10.48
2023-05-09T18:11:26.736Z,9.50
2023-05-09T18:14:24.528Z,10.68
2023-05-09T18:17:22.639Z,9.75
2023-05-09T18:20:20.590Z,10.23
2023-05-09T18:23:18.508Z,9.60
2023-05-09T18:26:16.297Z,9.88
2023-05-09T18:29:14.404Z,9.93
2023-05-09T18:32:12.531Z,9.00
2023-05-09T18:35:11.170Z,9.45
2023-05-09T18:38:08.937Z,10.40
2023-05-09T18:41:09.144Z,10.45
2023-05-09T18:44:07.681Z,9.80
2023-05-09T18:47:05.720Z,10.63
2023-05-09T18:50:05.362Z,9.48
2023-05-09T18:53:03.660Z,9.48
2023-05-09T18:56:01.882Z,9.63
2023-05-09T18:58:59.787Z,11.48
2023-05-09T19:01:57.569Z,10.20
2023-05-09T19:04:55.560Z,10.00
2023-05-09T19:07:54.305Z,10.05
2023-05-09T19:10:52.276Z,10.25
2023-05-09T19:13:50.095Z,9.63
2023-05-09T19:16:48.296Z,10.23
2023-05-09T19:19:46.504Z,9.45
2023-05-09T19:22:48.795Z,8.95
2023-05-09T19:25:47.118Z,9.20
2023-05-09T19:28:46.698Z,9.52
2023-05-09T19:31:44.510Z,9.15
2023-05-09T19:34:42.595Z,9.52
2023-05-09T19:37:40.478Z,9.27
2023-05-09T19:40:39.012Z,9.75
2023-05-09T19:43:36.795Z,10.40
2023-05-09T19:46:35.793Z,9.32
2023-05-09T19:49:33.633Z,10.18
2023-05-09T19:52:32.421Z,9.25
2023-05-09T19:55:30.327Z,8.98
2023-05-09T19:58:28.659Z,9.70
2023-05-09T20:01:26.765Z,9.10
2023-05-09T20:04:24.806Z,9.30
2023-05-09T20:07:22.734Z,9.80
2023-05-09T20:10:20.840Z,8.95
2023-05-09T20:13:18.970Z,9.30
2023-05-09T20:16:17.125Z,9.00
2023-05-09T20:19:15.672Z,9.35
2023-05-09T20:22:13.705Z,8.88
2023-05-09T20:25:11.657Z,9.02
2023-05-09T20:28:12.520Z,9.73
2023-05-09T20:31:10.494Z,8.68
2023-05-09T20:34:11.468Z,9.80
2023-05-09T20:37:09.501Z,10.95
2023-05-09T20:40:09.056Z,9.30
2023-05-09T20:43:07.157Z,8.50
2023-05-09T20:46:05.835Z,8.63
2023-05-09T20:49:05.658Z,8.35
2023-05-09T20:52:03.648Z,9.43
2023-05-09T20:55:02.468Z,8.55
2023-05-09T20:58:00.442Z,8.38
2023-05-09T21:00:58.558Z,8.88
2023-05-09T21:03:56.535Z,8.35
2023-05-09T21:06:54.597Z,7.35
2023-05-09T21:09:52.742Z,8.38
2023-05-09T21:12:50.600Z,8.77
2023-05-09T21:15:51.473Z,8.57
2023-05-09T21:18:49.303Z,8.65
2023-05-09T21:21:47.278Z,8.57
2023-05-09T21:24:45.111Z,8.48
2023-05-09T21:27:43.057Z,7.95
2023-05-09T21:30:41.005Z,7.90
2023-05-09T21:33:39.068Z,8.18
2023-05-09T21:36:39.440Z,8.07
2023-05-09T21:39:37.430Z,8.60
2023-05-09T21:42:36.533Z,7.90
2023-05-09T21:45:34.587Z,7.88
2023-05-09T21:48:32.519Z,8.10
2023-05-09T21:51:31.783Z,8.77
2023-05-09T21:54:29.609Z,8.95
2023-05-09T21:57:27.560Z,8.23
2023-05-09T22:00:25.309Z,8.23
2023-05-09T22:03:23.932Z,8.05
2023-05-09T22:06:21.864Z,8.27
2023-05-09T22:09:19.945Z,8.77
2023-05-09T22:12:17.907Z,8.25
2023-05-09T22:15:15.827Z,9.13
2023-05-09T22:18:13.701Z,8.48
2023-05-09T22:21:11.652Z,8.07
2023-05-09T22:24:09.535Z,8.70
2023-05-09T22:27:07.492Z,8.15
2023-05-09T22:30:06.501Z,8.40
2023-05-09T22:33:04.500Z,7.97
2023-05-09T22:36:02.597Z,8.02
2023-05-09T22:39:00.488Z,7.53
2023-05-09T22:41:58.285Z,8.43
2023-05-09T22:44:56.286Z,7.28
2023-05-09T22:47:54.169Z,8.05
2023-05-09T22:50:52.126Z,8.38
2023-05-09T22:53:49.922Z,8.48
2023-05-09T22:56:48.252Z,9.00
2023-05-09T22:59:46.712Z,7.30
2023-05-09T23:02:44.662Z,7.65
2023-05-09T23:05:43.363Z,7.95
2023-05-09T23:08:41.286Z,7.97
2023-05-09T23:11:39.084Z,8.18
2023-05-09T23:14:37.155Z,8.63
2023-05-09T23:17:35.451Z,8.68
2023-05-09T23:20:33.966Z,7.90
2023-05-09T23:23:31.742Z,7.43
2023-05-09T23:26:29.654Z,8.07
2023-05-09T23:29:27.421Z,7.18
2023-05-09T23:32:25.443Z,8.82
2023-05-09T23:35:23.229Z,7.55
2023-05-09T23:38:21.192Z,7.68
2023-05-09T23:41:19.132Z,7.40
2023-05-09T23:44:17.144Z,6.93
2023-05-09T23:47:14.907Z,7.18
2023-05-09T23:50:14.136Z,7.30
2023-05-09T23:53:12.530Z,6.82
2023-05-09T23:56:10.399Z,7.20
2023-05-09T23:59:08.472Z,6.88
